Time;durP1;ratioP1;P1;durP2;ratioP2;P2;SDS_P1;SDS_P2;PMS_P1;PMS_P2;Temp;Humidity;BMP_temperature;BMP_pressure;BME280_temperature;BME280_humidity;BME280_pressure;Samples;Min_cycle;Max_cycle;Signal;HPM_P1;HPM_P2
2022/09/30 00:00:16;;;;;;;;;;;;;;;8.10;79.18;99899.94;4936486;29;19921;-74
2022/09/30 00:03:23;;;;;;;;;;;;;;;8.13;78.57;99915.38;4935862;29;19922;-74
2022/09/30 00:06:28;;;;;;;;;;;;;;;8.19;78.51;99913.41;4935895;29;20415;-75
2022/09/30 00:09:32;;;;;;;;;;;;;;;8.11;78.68;99912.03;4936222;29;19937;-74
2022/09/30 00:12:36;;;;;;;;;;;;;;;8.00;79.19;99914.34;4935131;29;20031;-74
2022/09/30 00:15:39;;;;;;;;;;;;;;;8.03;79.50;99921.16;4935853;29;19922;-75
2022/09/30 00:18:43;;;;;;;;;;;;;;;8.24;78.76;99921.81;4936120;29;20008;-76
2022/09/30 00:21:47;;;;;;;;;;;;;;;8.16;78.78;99920.44;4935770;29;19964;-74
2022/09/30 00:24:50;;;;;;;;;;;;;;;8.11;79.34;99924.22;4935820;29;19985;-74
2022/09/30 00:27:54;;;;;;;;;;;;;;;7.96;79.19;99920.63;4935831;29;19922;-74
2022/09/30 00:31:04;;;;;;;;;;;;;;;7.87;78.80;99923.69;4936059;29;19921;-74
2022/09/30 00:34:07;;;;;;;;;;;;;;;7.83;78.39;99922.19;4935486;29;19981;-74
2022/09/30 00:37:13;;;;;;;;;;;;;;;7.90;78.21;99923.56;4935379;29;19925;-74
2022/09/30 00:40:20;;;;;;;;;;;;;;;8.01;77.77;99921.25;4935711;29;20047;-74
2022/09/30 00:43:40;;;;;;;;;;;;;;;7.95;78.59;99921.56;4935397;29;19922;-74
2022/09/30 00:46:43;;;;;;;;;;;;;;;7.75;79.76;99919.09;4935181;29;20377;-74
2022/09/30 00:49:47;;;;;;;;;;;;;;;7.81;79.87;99926.63;4935500;29;20394;-74
2022/09/30 00:53:08;;;;;;;;;;;;;;;7.87;79.95;99919.34;4936400;29;19922;-74
2022/09/30 00:56:17;;;;;;;;;;;;;;;7.87;79.33;99928.91;4935614;29;20014;-74
2022/09/30 00:59:24;;;;;;;;;;;;;;;7.99;78.72;99924.84;4935864;29;19922;-74
2022/09/30 01:02:27;;;;;;;;;;;;;;;7.89;78.23;99937.50;4935318;29;19962;-74
2022/09/30 01:05:31;;;;;;;;;;;;;;;7.72;79.16;99937.47;4935057;29;20286;-74
2022/09/30 01:08:36;;;;;;;;;;;;;;;7.72;79.03;99950.50;4935379;29;19926;-74
2022/09/30 01:11:39;;;;;;;;;;;;;;;7.65;79.55;99953.41;4935660;29;20290;-74
2022/09/30 01:14:44;;;;;;;;;;;;;;;7.68;79.77;99953.25;4923468;29;19925;-74
2022/09/30 01:17:48;;;;;;;;;;;;;;;7.60;80.22;99952.78;4939994;29;19922;-74
2022/09/30 01:21:10;;;;;;;;;;;;;;;7.64;79.95;99943.91;4939770;29;20446;-74
2022/09/30 01:24:28;;;;;;;;;;;;;;;7.52;80.27;99949.72;4938889;29;20013;-74
2022/09/30 01:27:43;;;;;;;;;;;;;;;7.55;80.14;99949.56;4927334;29;20390;-74
2022/09/30 01:30:46;;;;;;;;;;;;;;;7.74;79.27;99954.72;4939203;29;19969;-74
2022/09/30 01:34:09;;;;;;;;;;;;;;;7.81;78.34;99956.06;4939083;29;19921;-74
2022/09/30 01:37:31;;;;;;;;;;;;;;;7.71;78.76;99954.03;4938451;29;19929;-74
2022/09/30 01:40:40;;;;;;;;;;;;;;;7.60;79.30;99960.59;4938520;29;19931;-74
2022/09/30 01:44:11;;;;;;;;;;;;;;;7.54;80.02;99953.09;4938508;29;19973;-74
2022/09/30 01:47:24;;;;;;;;;;;;;;;7.46;80.92;99950.00;4927820;29;19934;-74
2022/09/30 01:50:45;;;;;;;;;;;;;;;7.73;80.02;99957.41;4937542;29;19969;-74
2022/09/30 01:53:53;;;;;;;;;;;;;;;7.35;81.18;99962.72;4926641;29;19963;-73
2022/09/30 01:57:07;;;;;;;;;;;;;;;7.48;81.08;99960.34;4937387;29;20000;-74
2022/09/30 02:00:14;;;;;;;;;;;;;;;7.56;80.06;99956.47;4938486;29;19965;-74
2022/09/30 02:03:33;;;;;;;;;;;;;;;7.80;78.46;99957.00;4937263;29;19961;-74
2022/09/30 02:06:41;;;;;;;;;;;;;;;7.72;78.67;99956.53;4937340;29;19929;-74
2022/09/30 02:09:50;;;;;;;;;;;;;;;7.71;78.30;99960.06;4937894;29;19938;-74
2022/09/30 02:13:16;;;;;;;;;;;;;;;7.53;79.07;99960.97;4936619;29;19973;-74
2022/09/30 02:16:23;;;;;;;;;;;;;;;7.30;80.71;99959.47;4936981;29;19922;-74
2022/09/30 02:19:38;;;;;;;;;;;;;;;7.35;80.97;99960.94;4937353;29;19921;-74
2022/09/30 02:22:44;;;;;;;;;;;;;;;7.52;80.01;99965.31;4937356;29;19921;-74
2022/09/30 02:25:50;;;;;;;;;;;;;;;7.48;79.71;99969.00;4937715;29;19974;-75
2022/09/30 02:28:58;;;;;;;;;;;;;;;7.51;79.67;99971.44;4937833;29;19921;-74
2022/09/30 02:32:05;;;;;;;;;;;;;;;7.43;80.55;99970.97;4937591;29;19970;-74
2022/09/30 02:35:10;;;;;;;;;;;;;;;7.37;81.11;99968.66;4937290;29;20010;-75
2022/09/30 02:38:17;;;;;;;;;;;;;;;7.33;81.48;99967.13;4937585;29;19970;-75
2022/09/30 02:41:25;;;;;;;;;;;;;;;7.44;81.31;99977.88;4937586;29;19922;-74
2022/09/30 02:44:30;;;;;;;;;;;;;;;7.43;81.13;99965.75;4937581;29;20273;-74
2022/09/30 02:47:49;;;;;;;;;;;;;;;7.19;81.21;99962.59;4937424;29;20360;-74
2022/09/30 02:51:14;;;;;;;;;;;;;;;7.29;81.55;99968.19;4937562;29;20014;-74
2022/09/30 02:54:36;;;;;;;;;;;;;;;7.20;81.30;99970.31;4937407;29;20373;-75
2022/09/30 02:57:45;;;;;;;;;;;;;;;7.22;80.13;99973.69;4937186;29;19922;-75
2022/09/30 03:00:49;;;;;;;;;;;;;;;7.16;80.16;99968.78;4937062;29;19970;-75
2022/09/30 03:04:02;;;;;;;;;;;;;;;7.20;79.82;99978.09;4937244;29;19962;-75
2022/09/30 03:07:06;;;;;;;;;;;;;;;7.15;80.00;99980.09;4936805;29;19925;-74
2022/09/30 03:10:14;;;;;;;;;;;;;;;7.19;79.62;99989.44;4937051;29;19921;-75
2022/09/30 03:13:36;;;;;;;;;;;;;;;7.09;80.16;99995.97;4937043;29;19961;-75
2022/09/30 03:16:39;;;;;;;;;;;;;;;7.30;79.06;99991.50;4936948;29;19970;-75
2022/09/30 03:19:54;;;;;;;;;;;;;;;7.30;79.07;99985.47;4936513;29;20003;-74
2022/09/30 03:23:17;;;;;;;;;;;;;;;7.10;79.63;99994.22;4928613;29;19921;-75
2022/09/30 03:26:23;;;;;;;;;;;;;;;6.99;80.20;99994.72;4914299;29;19973;-74
2022/09/30 03:29:27;;;;;;;;;;;;;;;6.88;80.93;99994.34;4917241;29;20409;-75
2022/09/30 03:32:38;;;;;;;;;;;;;;;6.82;81.65;99999.81;4917565;29;19982;-75
2022/09/30 03:35:57;;;;;;;;;;;;;;;6.79;81.49;100006.00;4920558;29;20360;-75
2022/09/30 03:39:03;;;;;;;;;;;;;;;6.74;81.71;100000.19;4897465;29;19926;-75
2022/09/30 03:42:11;;;;;;;;;;;;;;;7.00;81.17;100014.59;4900756;29;19922;-75
2022/09/30 03:45:38;;;;;;;;;;;;;;;6.98;81.00;100021.59;4898096;29;19994;-75
2022/09/30 03:48:45;;;;;;;;;;;;;;;6.99;80.64;100021.56;4917470;29;20074;-75
2022/09/30 03:51:49;;;;;;;;;;;;;;;7.04;80.53;100036.94;4920546;29;20279;-75
2022/09/30 03:55:13;;;;;;;;;;;;;;;;;;;;;
2022/09/30 03:58:18;;;;;;;;;;;;;;;6.97;80.88;100056.31;4897030;29;19922;-75
2022/09/30 04:01:22;;;;;;;;;;;;;;;7.05;80.38;100053.38;4896897;29;20344;-74
2022/09/30 04:04:27;;;;;;;;;;;;;;;7.08;80.73;100054.06;4897699;29;20009;-75
2022/09/30 04:07:31;;;;;;;;;;;;;;;7.01;80.54;100055.25;4897896;29;19952;-75
2022/09/30 04:10:51;;;;;;;;;;;;;;;6.95;81.15;100064.16;4897979;29;20022;-75
2022/09/30 04:13:55;;;;;;;;;;;;;;;7.09;81.19;100068.78;4898080;29;20000;-74
2022/09/30 04:17:00;;;;;;;;;;;;;;;7.12;80.62;100070.41;4897716;29;19967;-74
2022/09/30 04:20:06;;;;;;;;;;;;;;;7.07;80.86;100075.78;4897430;29;19922;-75
2022/09/30 04:23:13;;;;;;;;;;;;;;;7.10;81.36;100067.84;4897965;29;20046;-74
2022/09/30 04:26:18;;;;;;;;;;;;;;;7.07;81.08;100065.38;4897241;29;19925;-74
2022/09/30 04:29:25;;;;;;;;;;;;;;;7.07;80.33;100073.19;4897563;29;20002;-75
2022/09/30 04:32:31;;;;;;;;;;;;;;;7.05;80.71;100068.97;4897652;29;19963;-75
2022/09/30 04:35:35;;;;;;;;;;;;;;;7.09;79.71;100060.13;4902738;29;19926;-75
2022/09/30 04:38:40;;;;;;;;;;;;;;;7.06;80.00;100071.50;4916832;29;20385;-75
2022/09/30 04:41:44;;;;;;;;;;;;;;;7.16;79.21;100067.56;4916212;29;19921;-75
2022/09/30 04:44:50;;;;;;;;;;;;;;;7.08;79.63;100064.47;4916032;29;19921;-75
2022/09/30 04:47:55;;;;;;;;;;;;;;;7.05;79.89;100075.03;4915248;29;20014;-74
2022/09/30 04:50:59;;;;;;;;;;;;;;;7.07;80.16;100070.59;4914570;29;19923;-74
2022/09/30 04:54:06;;;;;;;;;;;;;;;7.06;79.44;100073.28;4921075;29;20003;-75
2022/09/30 04:57:12;;;;;;;;;;;;;;;7.04;78.95;100069.88;4915853;29;19953;-75
2022/09/30 05:00:17;;;;;;;;;;;;;;;6.87;80.63;100083.63;4916585;29;19939;-74
2022/09/30 05:03:21;;;;;;;;;;;;;;;7.07;80.30;100086.19;4915875;29;19957;-75
2022/09/30 05:06:25;;;;;;;;;;;;;;;7.07;79.73;100091.38;4915899;29;19973;-75
2022/09/30 05:09:30;;;;;;;;;;;;;;;6.87;80.49;100091.44;4912358;29;20414;-75
2022/09/30 05:12:35;;;;;;;;;;;;;;;6.82;80.33;100109.81;4910375;29;20009;-75
2022/09/30 05:15:40;;;;;;;;;;;;;;;6.71;81.54;100112.88;4912739;29;20294;-75
2022/09/30 05:18:45;;;;;;;;;;;;;;;6.73;80.59;100128.38;4922016;29;19938;-74
2022/09/30 05:21:48;;;;;;;;;;;;;;;6.88;80.02;100124.31;4915025;29;19937;-75
2022/09/30 05:24:52;;;;;;;;;;;;;;;6.88;79.77;100124.31;4915697;29;19942;-75
2022/09/30 05:27:55;;;;;;;;;;;;;;;6.85;79.56;100124.44;4915487;29;19957;-74
2022/09/30 05:31:02;;;;;;;;;;;;;;;6.78;79.69;100130.81;4914851;29;19951;-75
2022/09/30 05:34:09;;;;;;;;;;;;;;;6.86;79.08;100131.31;4915449;29;19922;-75
2022/09/30 05:37:14;;;;;;;;;;;;;;;6.90;78.49;100127.69;4917328;29;19930;-75
2022/09/30 05:40:20;;;;;;;;;;;;;;;6.63;79.31;100146.13;4912804;29;19923;-75
2022/09/30 05:43:26;;;;;;;;;;;;;;;6.49;80.11;100153.66;4911927;29;19930;-75
2022/09/30 05:46:30;;;;;;;;;;;;;;;6.59;80.46;100161.91;4915941;29;19934;-75
2022/09/30 05:49:33;;;;;;;;;;;;;;;6.64;80.75;100163.41;4914974;29;19931;-75
2022/09/30 05:52:37;;;;;;;;;;;;;;;6.64;80.82;100163.41;4912860;29;19921;-75
2022/09/30 05:55:46;;;;;;;;;;;;;;;6.83;79.30;100173.00;4915032;29;19922;-75
2022/09/30 05:58:55;;;;;;;;;;;;;;;6.80;78.99;100178.38;4918095;29;19969;-74
2022/09/30 06:01:59;;;;;;;;;;;;;;;6.68;79.49;100175.38;4898214;29;20038;-75
2022/09/30 06:05:03;;;;;;;;;;;;;;;6.81;78.67;100190.44;4897910;29;20529;-75
2022/09/30 06:08:07;;;;;;;;;;;;;;;6.89;78.52;100177.97;4897189;29;20135;-75
2022/09/30 06:11:12;;;;;;;;;;;;;;;6.69;79.73;100184.84;4903594;29;19926;-75
2022/09/30 06:14:18;;;;;;;;;;;;;;;6.88;79.62;100184.06;4914802;29;20009;-75
2022/09/30 06:17:22;;;;;;;;;;;;;;;6.93;79.38;100189.94;4913299;29;19922;-75
2022/09/30 06:20:25;;;;;;;;;;;;;;;6.74;79.59;100184.66;4912760;29;19943;-75
2022/09/30 06:23:30;;;;;;;;;;;;;;;6.88;79.56;100189.28;4914421;29;19965;-75
2022/09/30 06:26:34;;;;;;;;;;;;;;;7.01;78.72;100193.03;4913565;29;19926;-75
2022/09/30 06:29:38;;;;;;;;;;;;;;;6.28;82.59;100192.56;4914997;29;20010;-76
2022/09/30 06:32:41;;;;;;;;;;;;;;;6.28;83.53;100196.91;4915975;29;19922;-75
2022/09/30 06:35:46;;;;;;;;;;;;;;;6.64;81.16;100205.00;4915798;29;19926;-75
2022/09/30 06:38:51;;;;;;;;;;;;;;;6.67;80.43;100211.81;4915852;29;19922;-75
2022/09/30 06:41:55;;;;;;;;;;;;;;;6.91;79.67;100222.94;4895751;29;20374;-75
2022/09/30 06:45:04;;;;;;;;;;;;;;;6.85;78.52;100218.81;4895966;29;19922;-74
2022/09/30 06:48:09;;;;;;;;;;;;;;;6.98;78.65;100221.75;4895774;29;20085;-75
2022/09/30 06:51:16;;;;;;;;;;;;;;;6.96;78.03;100223.59;4895773;29;20395;-75
2022/09/30 06:54:21;;;;;;;;;;;;;;;6.81;78.72;100226.84;4904486;29;19921;-75
2022/09/30 06:57:26;;;;;;;;;;;;;;;7.03;78.92;100227.63;4920130;29;20005;-75
2022/09/30 07:00:29;;;;;;;;;;;;;;;6.91;79.07;100223.78;4917029;29;19922;-74
2022/09/30 07:03:34;;;;;;;;;;;;;;;6.76;78.72;100227.00;4899365;29;20055;-74
2022/09/30 07:06:38;;;;;;;;;;;;;;;6.59;80.09;100222.50;4900397;29;20429;-75
2022/09/30 07:09:42;;;;;;;;;;;;;;;6.83;80.05;100222.41;4913374;29;19925;-75
2022/09/30 07:12:51;;;;;;;;;;;;;;;6.99;78.43;100221.72;4912620;29;19922;-75
2022/09/30 07:15:56;;;;;;;;;;;;;;;7.04;77.35;100226.69;4913893;29;19926;-76
2022/09/30 07:19:01;;;;;;;;;;;;;;;6.98;77.96;100222.59;4913607;29;19967;-75
2022/09/30 07:25:27;;;;;;;;;;;;;;;7.06;78.48;100229.25;4893689;29;20036;-76
2022/09/30 07:28:34;;;;;;;;;;;;;;;7.14;77.44;100240.16;4895575;29;19926;-75
2022/09/30 07:31:41;;;;;;;;;;;;;;;7.18;76.66;100232.16;4906432;29;19922;-75
2022/09/30 07:34:46;;;;;;;;;;;;;;;7.15;76.98;100236.66;4914686;29;19954;-76
2022/09/30 07:37:50;;;;;;;;;;;;;;;6.85;77.61;100238.78;4913851;29;19926;-76
2022/09/30 07:41:01;;;;;;;;;;;;;;;6.82;78.38;100244.94;4914444;29;19921;-75
2022/09/30 07:44:08;;;;;;;;;;;;;;;7.01;78.23;100241.59;4913456;29;19922;-76
2022/09/30 07:47:13;;;;;;;;;;;;;;;7.00;78.59;100251.16;4913124;29;19930;-76
2022/09/30 07:50:18;;;;;;;;;;;;;;;6.99;78.43;100252.06;4913726;29;19946;-76
2022/09/30 07:53:22;;;;;;;;;;;;;;;7.06;78.62;100256.09;4895406;29;20331;-76
2022/09/30 07:56:26;;;;;;;;;;;;;;;7.11;78.70;100263.69;4917403;29;19922;-76
2022/09/30 07:59:32;;;;;;;;;;;;;;;7.31;78.50;100263.69;4912236;29;19963;-76
2022/09/30 08:02:35;;;;;;;;;;;;;;;7.35;78.12;100256.59;4912232;29;19946;-76
2022/09/30 08:05:39;;;;;;;;;;;;;;;7.60;76.58;100262.44;4910914;29;19974;-76
2022/09/30 08:08:46;;;;;;;;;;;;;;;7.30;78.57;100271.53;4911731;29;20390;-77
2022/09/30 08:11:49;;;;;;;;;;;;;;;7.35;78.84;100264.41;4911296;29;19922;-77
2022/09/30 08:14:53;;;;;;;;;;;;;;;6.91;81.41;100256.72;4911769;29;19938;-77
2022/09/30 08:17:57;;;;;;;;;;;;;;;7.10;82.13;100270.63;4899567;29;19977;-77
2022/09/30 08:21:04;;;;;;;;;;;;;;;7.41;79.72;100264.16;4911303;29;20054;-77
2022/09/30 08:24:07;;;;;;;;;;;;;;;7.10;80.48;100269.81;4913772;29;19966;-78
2022/09/30 08:27:10;;;;;;;;;;;;;;;7.36;79.97;100276.50;4912191;29;19969;-78
2022/09/30 08:30:14;;;;;;;;;;;;;;;7.55;78.69;100269.56;4912156;29;19921;-77
2022/09/30 08:33:17;;;;;;;;;;;;;;;7.43;82.43;100268.38;4913069;29;19967;-77
2022/09/30 08:36:22;;;;;;;;;;;;;;;7.34;81.95;100273.09;4906572;29;20037;-77
2022/09/30 08:39:26;;;;;;;;;;;;;;;7.46;80.30;100273.41;4915110;29;19921;-77
2022/09/30 08:42:29;;;;;;;;;;;;;;;7.28;80.57;100273.38;4915480;29;19922;-77
2022/09/30 08:45:58;;;;;;;;;;;;;;;7.31;81.44;100276.69;4915714;29;20424;-80
2022/09/30 08:49:10;;;;;;;;;;;;;;;7.39;81.69;100286.75;4916302;29;19921;-77
2022/09/30 08:52:18;;;;;;;;;;;;;;;7.21;81.98;100280.56;4916604;29;19922;-77
2022/09/30 08:55:24;;;;;;;;;;;;;;;7.44;81.82;100290.03;4909852;29;19922;-77
2022/09/30 08:58:29;;;;;;;;;;;;;;;7.33;81.49;100284.44;4919820;29;19942;-77
2022/09/30 09:01:35;;;;;;;;;;;;;;;7.46;81.41;100288.19;4892985;29;19969;-77
2022/09/30 09:04:38;;;;;;;;;;;;;;;7.55;81.64;100276.53;4911732;29;20013;-76
2022/09/30 09:07:57;;;;;;;;;;;;;;;7.87;80.01;100285.53;4913680;29;20447;-76
2022/09/30 09:11:19;;;;;;;;;;;;;;;7.91;80.14;100289.66;4911604;29;20278;-76
2022/09/30 09:14:26;;;;;;;;;;;;;;;7.94;81.17;100289.53;4893981;29;19922;-76
2022/09/30 09:17:36;;;;;;;;;;;;;;;8.11;80.50;100287.03;4893474;29;19926;-76
2022/09/30 09:20:46;;;;;;;;;;;;;;;8.27;79.88;100288.94;4910677;29;19940;-76
2022/09/30 09:23:53;;;;;;;;;;;;;;;8.73;78.77;100294.59;4911750;29;19935;-76
2022/09/30 09:26:57;;;;;;;;;;;;;;;8.67;77.85;100284.47;4912393;29;19926;-76
2022/09/30 09:30:06;;;;;;;;;;;;;;;8.81;78.37;100282.03;4912069;29;20393;-76
2022/09/30 09:33:17;;;;;;;;;;;;;;;8.67;78.05;100279.25;4911895;29;19943;-76
2022/09/30 09:36:44;;;;;;;;;;;;;;;8.74;77.99;100275.41;4912386;29;19930;-76
2022/09/30 09:39:58;;;;;;;;;;;;;;;8.90;78.63;100273.75;4896126;29;20062;-76
2022/09/30 09:43:19;;;;;;;;;;;;;;;8.95;78.46;100270.91;4896384;29;19926;-76
2022/09/30 09:46:49;;;;;;;;;;;;;;;8.97;78.88;100271.69;4896831;29;19943;-76
2022/09/30 09:49:54;;;;;;;;;;;;;;;8.92;79.10;100256.28;4896172;29;19947;-76
2022/09/30 09:53:24;;;;;;;;;;;;;;;9.07;78.90;100263.34;4913150;29;19922;-76
2022/09/30 09:56:28;;;;;;;;;;;;;;;9.10;79.10;100262.34;4910062;29;20014;-76
2022/09/30 09:59:32;;;;;;;;;;;;;;;9.02;79.62;100260.09;4918657;29;19922;-76
2022/09/30 10:02:37;;;;;;;;;;;;;;;9.07;80.11;100246.84;4918651;29;19998;-75
2022/09/30 10:05:41;;;;;;;;;;;;;;;9.26;81.43;100257.19;4922720;29;20129;-76
2022/09/30 10:08:54;;;;;;;;;;;;;;;9.37;80.93;100246.19;4918549;29;20126;-76
2022/09/30 10:12:10;;;;;;;;;;;;;;;9.48;81.29;100241.28;4926139;29;20342;-76
2022/09/30 10:15:25;;;;;;;;;;;;;;;9.54;80.98;100246.19;4904346;29;20251;-76
2022/09/30 10:18:28;;;;;;;;;;;;;;;9.73;80.22;100236.44;4913618;29;20007;-76
2022/09/30 10:21:32;;;;;;;;;;;;;;;9.87;81.54;100234.84;4914541;29;20326;-76
2022/09/30 10:24:37;;;;;;;;;;;;;;;9.93;80.57;100231.91;4915392;29;19922;-76
2022/09/30 10:28:00;;;;;;;;;;;;;;;9.95;81.43;100240.50;4914574;29;20045;-76
2022/09/30 10:31:04;;;;;;;;;;;;;;;10.06;81.49;100239.94;4914956;29;19926;-76
2022/09/30 10:34:08;;;;;;;;;;;;;;;10.12;81.34;100235.22;4914677;29;19923;-76
2022/09/30 10:37:18;;;;;;;;;;;;;;;10.20;81.55;100230.38;4915936;29;19934;-76
2022/09/30 10:40:26;;;;;;;;;;;;;;;10.38;81.32;100239.00;4896288;29;19923;-76
2022/09/30 10:43:29;;;;;;;;;;;;;;;10.52;81.99;100237.41;4895610;29;20214;-76
2022/09/30 10:46:34;;;;;;;;;;;;;;;10.60;80.96;100237.81;4894819;29;19988;-76
2022/09/30 10:49:42;;;;;;;;;;;;;;;10.68;80.89;100230.34;4907476;29;19963;-76
2022/09/30 10:52:51;;;;;;;;;;;;;;;10.90;83.00;100236.03;4913266;29;19941;-76
2022/09/30 10:55:55;;;;;;;;;;;;;;;11.06;81.37;100230.75;4914117;29;19975;-76
2022/09/30 10:59:00;;;;;;;;;;;;;;;11.25;81.27;100225.25;4913718;29;20402;-76
2022/09/30 11:02:11;;;;;;;;;;;;;;;11.35;80.31;100226.38;4924317;29;19930;-76
2022/09/30 11:05:21;;;;;;;;;;;;;;;11.39;80.84;100219.19;4914375;29;19921;-76
2022/09/30 11:08:31;;;;;;;;;;;;;;;11.63;80.19;100214.25;4915474;29;20028;-76
2022/09/30 11:11:40;;;;;;;;;;;;;;;11.74;80.21;100210.94;4914143;29;19922;-78
2022/09/30 11:14:44;;;;;;;;;;;;;;;11.98;79.38;100213.88;4912491;29;19938;-78
2022/09/30 11:17:59;;;;;;;;;;;;;;;12.07;77.63;100210.66;4912730;29;20100;-76
2022/09/30 11:21:06;;;;;;;;;;;;;;;12.15;77.56;100207.53;4913364;29;20342;-76
2022/09/30 11:24:20;;;;;;;;;;;;;;;12.28;76.76;100211.06;4913674;29;19921;-76
2022/09/30 11:27:29;;;;;;;;;;;;;;;12.34;76.40;100211.50;4913214;29;19981;-76
2022/09/30 11:30:38;;;;;;;;;;;;;;;12.50;75.22;100202.66;4913480;29;20077;-76
2022/09/30 11:33:46;;;;;;;;;;;;;;;12.62;75.36;100198.38;4913198;29;19938;-76
2022/09/30 11:36:56;;;;;;;;;;;;;;;12.64;75.05;100196.50;4912472;29;19930;-76
2022/09/30 11:40:16;;;;;;;;;;;;;;;12.73;73.40;100190.63;4913545;29;19921;-77
2022/09/30 11:43:38;;;;;;;;;;;;;;;12.55;75.14;100187.47;4914250;29;19979;-76
2022/09/30 11:46:41;;;;;;;;;;;;;;;12.48;75.87;100187.03;4904823;29;19974;-76
2022/09/30 11:50:06;;;;;;;;;;;;;;;12.59;74.17;100182.84;4913055;29;19979;-77
2022/09/30 11:53:10;;;;;;;;;;;;;;;12.73;74.70;100181.00;4913902;29;19922;-76
2022/09/30 11:56:14;;;;;;;;;;;;;;;12.91;74.37;100181.53;4914276;29;20374;-75
2022/09/30 11:59:29;;;;;;;;;;;;;;;12.83;72.99;100177.72;4912495;29;19999;-76
2022/09/30 12:02:36;;;;;;;;;;;;;;;12.88;73.15;100167.78;4920994;29;19925;-76
2022/09/30 12:05:42;;;;;;;;;;;;;;;13.18;74.77;100164.88;4912648;29;20397;-76
2022/09/30 12:08:49;;;;;;;;;;;;;;;13.59;72.89;100159.41;4912631;29;19922;-76
2022/09/30 12:11:52;;;;;;;;;;;;;;;13.97;71.37;100155.78;4912413;29;19970;-76
2022/09/30 12:14:56;;;;;;;;;;;;;;;14.13;68.98;100160.78;4911475;29;19922;-76
2022/09/30 12:18:03;;;;;;;;;;;;;;;13.99;67.43;100156.53;4911956;29;19970;-76
2022/09/30 12:21:30;;;;;;;;;;;;;;;14.34;68.14;100158.38;4912578;29;19922;-76
2022/09/30 12:24:38;;;;;;;;;;;;;;;14.58;66.00;100156.59;4911806;29;19973;-76
2022/09/30 12:27:45;;;;;;;;;;;;;;;14.51;63.05;100152.72;4912171;29;19926;-76
2022/09/30 12:30:53;;;;;;;;;;;;;;;14.71;64.84;100155.66;4907429;29;19922;-76
2022/09/30 12:34:00;;;;;;;;;;;;;;;16.26;60.02;100142.53;4912445;29;19965;-76
2022/09/30 12:37:18;;;;;;;;;;;;;;;21.72;42.52;100138.44;4911515;29;19930;-76
2022/09/30 12:40:21;;;;;;;;;;;;;;;27.27;29.31;100129.66;4900750;29;19957;-77
2022/09/30 12:43:25;;;;;;;;;;;;;;;30.38;26.16;100124.19;4899583;29;20054;-77
2022/09/30 12:46:31;;;;;;;;;;;;;;;27.55;26.62;100122.34;4912246;29;19970;-77
2022/09/30 12:49:37;;;;;;;;;;;;;;;22.22;34.76;100145.56;4912179;29;20052;-76
2022/09/30 12:52:43;;;;;;;;;;;;;;;19.42;38.77;100150.81;4911983;29;20017;-77
2022/09/30 12:55:54;;;;;;;;;;;;;;;17.14;43.37;100156.38;4912591;29;20040;-76
2022/09/30 12:59:02;;;;;;;;;;;;;;;17.10;43.01;100158.44;4910330;29;20350;-77
2022/09/30 13:02:07;;;;;;;;;;;;;;;19.50;41.02;100145.63;4911840;29;20576;-76
2022/09/30 13:05:25;;;;;;;;;;;;;;;17.17;47.15;100151.66;4924997;29;19957;-77
2022/09/30 13:08:57;;;;;;;;;;;;;;;23.24;34.39;100138.00;4893708;29;19942;-76
2022/09/30 13:12:04;;;;;;;;;;;;;;;29.95;25.49;100128.41;4900088;29;20030;-76
2022/09/30 13:15:21;;;;;;;;;;;;;;;24.10;33.42;100137.94;4913045;29;20059;-76
2022/09/30 13:18:25;;;;;;;;;;;;;;;20.35;39.75;100147.03;4911859;29;20267;-76
2022/09/30 13:21:30;;;;;;;;;;;;;;;18.73;44.89;100142.25;4912269;29;19922;-76
2022/09/30 13:24:53;;;;;;;;;;;;;;;17.30;48.78;100146.16;4913056;29;19926;-76
2022/09/30 13:28:13;;;;;;;;;;;;;;;16.47;52.52;100142.56;4891733;29;20035;-76
2022/09/30 13:31:18;;;;;;;;;;;;;;;16.30;54.84;100148.41;4893925;29;20676;-76
2022/09/30 13:34:30;;;;;;;;;;;;;;;18.57;49.13;100147.25;4894329;29;19922;-76
2022/09/30 13:37:37;;;;;;;;;;;;;;;18.42;50.96;100138.06;4911489;29;20459;-76
2022/09/30 13:40:47;;;;;;;;;;;;;;;17.88;52.15;100143.72;4911024;29;20435;-76
2022/09/30 13:44:03;;;;;;;;;;;;;;;17.02;51.40;100136.28;4910837;29;19954;-76
2022/09/30 13:47:17;;;;;;;;;;;;;;;16.74;49.93;100134.13;4911797;29;20405;-76
2022/09/30 13:50:45;;;;;;;;;;;;;;;17.96;50.91;100134.25;4911578;29;20013;-76
2022/09/30 13:53:50;;;;;;;;;;;;;;;19.21;46.78;100125.38;4912575;29;19953;-76
2022/09/30 13:56:55;;;;;;;;;;;;;;;22.85;37.44;100123.56;4912819;29;19966;-76
2022/09/30 14:00:31;;;;;;;;;;;;;;;22.85;37.53;100128.91;4912220;29;19934;-76
2022/09/30 14:04:10;;;;;;;;;;;;;;;25.63;31.03;100115.41;4891992;29;19969;-77
2022/09/30 14:07:25;;;;;;;;;;;;;;;27.66;28.65;100112.88;4871773;29;19927;-76
2022/09/30 14:10:34;;;;;;;;;;;;;;;26.49;27.98;100108.28;4911970;29;19926;-76
2022/09/30 14:14:01;;;;;;;;;;;;;;;25.55;30.94;100115.50;4909700;29;19918;-76
2022/09/30 14:17:05;;;;;;;;;;;;;;;22.77;35.24;100126.25;4898666;29;19978;-76
2022/09/30 14:20:14;;;;;;;;;;;;;;;21.51;38.35;100115.78;4915269;29;19963;-76
2022/09/30 14:23:20;;;;;;;;;;;;;;;18.96;38.06;100123.38;4925395;29;19939;-76
2022/09/30 14:26:36;;;;;;;;;;;;;;;18.74;38.99;100122.72;4914948;29;19957;-76
2022/09/30 14:30:01;;;;;;;;;;;;;;;18.20;42.88;100120.66;4924681;29;20435;-76
2022/09/30 14:33:14;;;;;;;;;;;;;;;17.20;44.17;100116.22;4914970;29;19949;-76
2022/09/30 14:36:23;;;;;;;;;;;;;;;16.67;47.56;100111.88;4920837;29;19925;-76
2022/09/30 14:39:29;;;;;;;;;;;;;;;16.60;52.52;100109.88;4933721;29;19978;-76
2022/09/30 14:42:39;;;;;;;;;;;;;;;17.60;49.12;100107.44;4933892;29;19922;-76
2022/09/30 14:45:46;;;;;;;;;;;;;;;18.27;48.20;100096.13;4934241;29;19930;-76
2022/09/30 14:48:53;;;;;;;;;;;;;;;18.26;46.54;100093.63;4932954;29;20722;-76
2022/09/30 14:51:59;;;;;;;;;;;;;;;17.81;46.67;100091.53;4925301;29;20060;-76
2022/09/30 14:55:16;;;;;;;;;;;;;;;17.58;45.52;100090.88;4912875;29;19918;-76
2022/09/30 14:58:30;;;;;;;;;;;;;;;17.82;47.95;100106.41;4914459;29;20120;-76
2022/09/30 15:01:36;;;;;;;;;;;;;;;17.63;46.42;100092.13;4913706;29;19982;-76
2022/09/30 15:04:45;;;;;;;;;;;;;;;17.77;48.21;100095.38;4914461;29;19925;-76
2022/09/30 15:07:48;;;;;;;;;;;;;;;17.35;50.48;100093.72;4913461;29;20014;-76
2022/09/30 15:10:54;;;;;;;;;;;;;;;17.14;50.29;100093.81;4913167;29;20370;-76
2022/09/30 15:14:16;;;;;;;;;;;;;;;16.55;51.21;100093.59;4914029;29;19921;-76
2022/09/30 15:17:27;;;;;;;;;;;;;;;16.88;51.98;100092.56;4913710;29;19921;-76
2022/09/30 15:20:32;;;;;;;;;;;;;;;16.92;45.56;100089.53;4913624;29;19966;-76
2022/09/30 15:23:38;;;;;;;;;;;;;;;17.28;49.76;100092.59;4914228;29;20422;-76
2022/09/30 15:27:15;;;;;;;;;;;;;;;16.79;53.21;100088.09;4909275;29;19926;-76
2022/09/30 15:30:25;;;;;;;;;;;;;;;16.28;55.46;100084.38;4914317;29;20391;-76
2022/09/30 15:33:31;;;;;;;;;;;;;;;16.08;56.13;100085.19;4913584;29;19926;-75
2022/09/30 15:36:41;;;;;;;;;;;;;;;15.65;57.77;100083.38;4913701;29;20002;-76
2022/09/30 15:43:14;;;;;;;;;;;;;;;15.30;59.00;100089.66;4913543;29;19981;-76
2022/09/30 15:46:18;;;;;;;;;;;;;;;15.27;60.13;100092.53;4912780;29;19926;-76
2022/09/30 15:49:30;;;;;;;;;;;;;;;15.23;61.41;100096.38;4909515;29;19968;-76
2022/09/30 15:52:38;;;;;;;;;;;;;;;15.16;62.48;100098.66;4912933;29;20022;-76
2022/09/30 15:55:43;;;;;;;;;;;;;;;15.21;62.25;100096.47;4912521;29;20396;-76
2022/09/30 15:58:54;;;;;;;;;;;;;;;15.09;62.17;100106.19;4913495;29;19937;-77
2022/09/30 16:01:58;;;;;;;;;;;;;;;15.06;62.17;100101.16;4913433;29;19922;-76
2022/09/30 16:05:04;;;;;;;;;;;;;;;14.96;63.27;100104.59;4912957;29;19970;-76
2022/09/30 16:08:08;;;;;;;;;;;;;;;14.85;63.33;100106.28;4913494;29;20001;-76
2022/09/30 16:11:20;;;;;;;;;;;;;;;14.63;63.55;100104.44;4911470;29;20273;-76
2022/09/30 16:14:44;;;;;;;;;;;;;;;14.65;63.77;100109.59;4911508;29;19922;-76
2022/09/30 16:17:49;;;;;;;;;;;;;;;14.41;63.71;100110.44;4897176;29;19926;-76
2022/09/30 16:21:00;;;;;;;;;;;;;;;14.27;65.12;100112.44;4911628;29;19970;-76
2022/09/30 16:24:34;;;;;;;;;;;;;;;14.34;65.05;100113.66;4912125;29;19926;-77
2022/09/30 16:27:38;;;;;;;;;;;;;;;14.13;67.20;100116.91;4911490;29;19926;-76